Time;durP1;ratioP1;P1;durP2;ratioP2;P2;SDS_P1;SDS_P2;PMS_P1;PMS_P2;Temp;Humidity;BMP_temperature;BMP_pressure;BME280_temperature;BME280_humidity;BME280_pressure;Samples;Min_cycle;Max_cycle;Signal;HPM_P1;HPM_P2
2024/01/05 00:01:19;;;;;;;;;;;;;;;7.93;72.76;99518.03;4182866;28;19982;-63
2024/01/05 00:03:22;;;;;;;;;;;;;;;7.96;72.52;99523.22;4182881;28;19925;-62
2024/01/05 00:05:25;;;;;;;;;;;;;;;8.00;72.73;99519.81;4182644;28;20386;-62
2024/01/05 00:07:28;;;;;;;;;;;;;;;8.06;72.43;99518.13;4181028;28;19925;-61
2024/01/05 00:09:31;;;;;;;;;;;;;;;8.07;72.21;99509.53;4181311;28;20046;-60
2024/01/05 00:11:34;;;;;;;;;;;;;;;8.00;72.18;99509.47;4181386;28;19931;-60
2024/01/05 00:13:37;;;;;;;;;;;;;;;8.01;72.05;99507.75;4182641;28;19929;-60
2024/01/05 00:15:39;;;;;;;;;;;;;;;8.00;72.03;99495.66;4182415;28;20016;-59
2024/01/05 00:17:43;;;;;;;;;;;;;;;8.00;72.37;99509.47;4182719;28;19998;-60
2024/01/05 00:19:46;;;;;;;;;;;;;;;8.01;72.22;99505.16;4182474;28;19925;-60
2024/01/05 00:21:49;;;;;;;;;;;;;;;8.01;71.99;99503.41;4182657;28;19928;-59
2024/01/05 00:23:52;;;;;;;;;;;;;;;8.02;71.96;99491.38;4182644;28;19968;-62
2024/01/05 00:25:55;;;;;;;;;;;;;;;8.00;72.07;99485.28;4182586;28;19925;-60
2024/01/05 00:27:58;;;;;;;;;;;;;;;7.98;71.90;99490.47;4180864;28;19932;-60
2024/01/05 00:30:01;;;;;;;;;;;;;;;7.98;71.96;99485.28;4182359;28;19975;-61
2024/01/05 00:32:04;;;;;;;;;;;;;;;7.96;71.93;99487.00;4181000;28;19932;-60
2024/01/05 00:34:07;;;;;;;;;;;;;;;7.96;72.03;99480.97;4182713;28;19971;-62
2024/01/05 00:36:11;;;;;;;;;;;;;;;7.92;71.90;99479.19;4181558;28;20009;-61
2024/01/05 00:38:14;;;;;;;;;;;;;;;7.93;71.96;99478.31;4182110;28;19960;-62
2024/01/05 00:40:16;;;;;;;;;;;;;;;7.94;71.77;99483.50;4182206;28;19964;-61
2024/01/05 00:42:19;;;;;;;;;;;;;;;7.93;72.04;99483.50;4182223;28;19987;-62
2024/01/05 00:44:21;;;;;;;;;;;;;;;7.91;71.80;99490.41;4182667;28;19932;-62
2024/01/05 00:46:24;;;;;;;;;;;;;;;7.92;71.62;99498.16;4182014;28;19978;-62
2024/01/05 00:48:26;;;;;;;;;;;;;;;7.92;71.57;99486.97;4181811;28;19932;-62
2024/01/05 00:50:31;;;;;;;;;;;;;;;7.94;71.49;99491.28;4182016;28;19924;-62
2024/01/05 00:52:34;;;;;;;;;;;;;;;7.93;71.78;99486.09;4181540;28;20019;-62
2024/01/05 00:54:36;;;;;;;;;;;;;;;7.93;71.67;99486.97;4180205;28;19933;-62
2024/01/05 00:56:40;;;;;;;;;;;;;;;7.91;71.71;99478.31;4181900;28;19932;-62
2024/01/05 00:58:42;;;;;;;;;;;;;;;7.90;71.79;99486.94;4181714;28;19925;-62
2024/01/05 01:00:45;;;;;;;;;;;;;;;7.85;71.60;99476.53;4181803;28;19924;-63
2024/01/05 01:02:48;;;;;;;;;;;;;;;7.84;71.56;99477.41;4181828;28;19964;-62
2024/01/05 01:04:50;;;;;;;;;;;;;;;7.75;71.86;99481.63;4181826;28;19982;-62
2024/01/05 01:06:54;;;;;;;;;;;;;;;7.69;72.15;99480.72;4181545;28;19972;-62
2024/01/05 01:08:57;;;;;;;;;;;;;;;7.73;72.23;99478.16;4181484;28;20379;-62
2024/01/05 01:11:01;;;;;;;;;;;;;;;7.79;72.10;99479.06;4181756;28;19979;-62
2024/01/05 01:13:04;;;;;;;;;;;;;;;7.74;72.09;99467.81;4180481;28;19975;-62
2024/01/05 01:15:07;;;;;;;;;;;;;;;7.76;71.89;99470.44;4181487;28;20368;-62
2024/01/05 01:17:10;;;;;;;;;;;;;;;7.74;72.09;99461.75;4181345;28;19994;-62
2024/01/05 01:19:13;;;;;;;;;;;;;;;7.71;72.17;99460.03;4181545;28;19925;-62
2024/01/05 01:21:16;;;;;;;;;;;;;;;7.69;72.10;99465.19;4181489;28;19924;-62
2024/01/05 01:23:20;;;;;;;;;;;;;;;7.67;72.22;99466.03;4181475;28;19978;-62
2024/01/05 01:25:23;;;;;;;;;;;;;;;7.63;72.32;99457.34;4181504;28;19946;-61
2024/01/05 01:27:25;;;;;;;;;;;;;;;7.65;72.37;99447.91;4181605;28;20390;-63
2024/01/05 01:29:28;;;;;;;;;;;;;;;7.60;72.37;99441.81;4181043;28;19931;-61
2024/01/05 01:31:31;;;;;;;;;;;;;;;7.53;72.18;99440.00;4180507;28;19931;-62
2024/01/05 01:33:34;;;;;;;;;;;;;;;7.53;72.52;99440.00;4181727;28;19929;-63
2024/01/05 01:35:37;;;;;;;;;;;;;;;7.48;72.62;99436.53;4181598;28;19928;-61
2024/01/05 01:37:38;;;;;;;;;;;;;;;7.51;72.84;99432.25;4181016;28;19964;-63
2024/01/05 01:39:44;;;;;;;;;;;;;;;7.51;72.84;99429.66;4181257;28;19925;-59
2024/01/05 01:41:46;;;;;;;;;;;;;;;7.57;72.67;99436.59;4181287;28;19924;-62
2024/01/05 01:43:48;;;;;;;;;;;;;;;7.54;72.54;99435.72;4179949;28;19924;-61
2024/01/05 01:45:57;;;;;;;;;;;;;;;7.50;72.97;99439.97;4181130;28;20371;-61
2024/01/05 01:48:00;;;;;;;;;;;;;;;7.49;72.65;99427.91;4180812;28;19928;-61
2024/01/05 01:50:03;;;;;;;;;;;;;;;7.46;72.88;99422.69;4181250;28;19979;-61
2024/01/05 01:52:06;;;;;;;;;;;;;;;7.44;72.77;99425.28;4181238;28;19964;-62
2024/01/05 01:54:09;;;;;;;;;;;;;;;7.41;72.97;99409.72;4181114;28;19948;-62
2024/01/05 01:56:13;;;;;;;;;;;;;;;7.42;72.88;99421.81;4180971;28;19983;-60
2024/01/05 01:58:17;;;;;;;;;;;;;;;7.42;73.23;99410.63;4180693;28;19925;-62
2024/01/05 02:00:19;;;;;;;;;;;;;;;7.38;73.11;99414.88;4179757;28;19931;-61
2024/01/05 02:02:22;;;;;;;;;;;;;;;7.37;73.80;99417.44;4163280;28;19930;-62
2024/01/05 02:04:25;;;;;;;;;;;;;;;7.37;73.82;99420.03;4180871;28;19947;-62
2024/01/05 02:06:28;;;;;;;;;;;;;;;7.39;73.60;99418.31;4179756;28;20406;-62
2024/01/05 02:08:31;;;;;;;;;;;;;;;7.37;73.26;99417.44;4180519;28;19932;-63
2024/01/05 02:10:33;;;;;;;;;;;;;;;7.37;73.66;99422.63;4181015;28;19924;-62
2024/01/05 02:12:37;;;;;;;;;;;;;;;7.33;73.32;99407.06;4180889;28;19925;-62
2024/01/05 02:14:40;;;;;;;;;;;;;;;7.31;73.86;99408.75;4180848;28;19978;-63
2024/01/05 02:16:43;;;;;;;;;;;;;;;7.34;73.17;99413.09;4180786;28;20279;-63
2024/01/05 02:18:50;;;;;;;;;;;;;;;7.27;73.69;99409.59;4179645;28;20364;-61
2024/01/05 02:20:53;;;;;;;;;;;;;;;7.27;73.90;99406.13;4180967;28;20301;-62
2024/01/05 02:22:56;;;;;;;;;;;;;;;7.30;73.20;99408.75;4180857;28;19925;-62
2024/01/05 02:25:00;;;;;;;;;;;;;;;7.27;73.32;99407.03;4180881;28;20344;-62
2024/01/05 02:27:03;;;;;;;;;;;;;;;7.26;73.68;99407.84;4180517;28;19924;-62
2024/01/05 02:29:06;;;;;;;;;;;;;;;7.25;73.42;99398.38;4179602;28;20398;-61
2024/01/05 02:31:08;;;;;;;;;;;;;;;7.29;73.30;99397.53;4179551;28;19932;-61
2024/01/05 02:33:11;;;;;;;;;;;;;;;7.26;73.68;99394.94;4180784;28;19964;-62
2024/01/05 02:35:13;;;;;;;;;;;;;;;7.24;73.44;99388.00;4179610;28;19925;-61
2024/01/05 02:37:16;;;;;;;;;;;;;;;7.20;73.79;99389.72;4180378;28;20275;-62
2024/01/05 02:39:19;;;;;;;;;;;;;;;7.15;73.40;99388.78;4180747;28;19924;-62
2024/01/05 02:41:23;;;;;;;;;;;;;;;7.16;73.98;99383.63;4180781;28;19931;-61
2024/01/05 02:43:24;;;;;;;;;;;;;;;7.18;73.85;99380.19;4180707;28;20382;-60
2024/01/05 02:45:27;;;;;;;;;;;;;;;7.17;73.56;99379.34;4180695;28;19932;-62
2024/01/05 02:47:30;;;;;;;;;;;;;;;7.14;73.66;99368.94;4180287;28;19928;-61
2024/01/05 02:49:32;;;;;;;;;;;;;;;7.23;72.94;99374.22;4180711;28;19960;-62
2024/01/05 02:51:35;;;;;;;;;;;;;;;7.13;73.46;99372.41;4180611;28;20019;-62
2024/01/05 02:53:37;;;;;;;;;;;;;;;7.10;73.34;99374.97;4180628;28;20023;-62
2024/01/05 02:55:40;;;;;;;;;;;;;;;7.12;73.62;99381.00;4180620;28;20279;-62
2024/01/05 02:57:43;;;;;;;;;;;;;;;7.12;73.61;99368.94;4179045;28;20372;-61
2024/01/05 02:59:46;;;;;;;;;;;;;;;7.11;73.67;99366.34;4180589;28;19935;-61
2024/01/05 03:01:50;;;;;;;;;;;;;;;7.12;73.70;99363.75;4179268;28;20027;-61
2024/01/05 03:03:53;;;;;;;;;;;;;;;7.12;73.89;99360.31;4180484;28;19929;-59
2024/01/05 03:05:55;;;;;;;;;;;;;;;7.16;73.66;99362.09;4180540;28;19931;-61
2024/01/05 03:07:58;;;;;;;;;;;;;;;7.16;73.02;99354.34;4180101;28;19925;-62
2024/01/05 03:10:01;;;;;;;;;;;;;;;7.13;73.87;99351.72;4180367;28;19932;-62
2024/01/05 03:12:05;;;;;;;;;;;;;;;7.20;73.06;99347.47;4180407;28;19947;-62
2024/01/05 03:14:09;;;;;;;;;;;;;;;7.20;73.07;99342.28;4180440;28;20444;-62
2024/01/05 03:16:11;;;;;;;;;;;;;;;7.20;73.38;99347.47;4180725;28;20027;-62
2024/01/05 03:18:14;;;;;;;;;;;;;;;7.16;73.53;99346.59;4183283;28;20348;-61
2024/01/05 03:20:17;;;;;;;;;;;;;;;7.20;72.95;99329.38;4183471;28;19929;-62
2024/01/05 03:22:20;;;;;;;;;;;;;;;7.22;73.18;99333.72;4183366;28;20394;-61
2024/01/05 03:24:24;;;;;;;;;;;;;;;7.23;72.75;99322.53;4183446;28;19925;-61
2024/01/05 03:26:27;;;;;;;;;;;;;;;7.13;72.79;99318.13;4183337;28;19925;-59
2024/01/05 03:28:29;;;;;;;;;;;;;;;7.07;73.55;99316.34;4182889;28;20027;-62
2024/01/05 03:30:33;;;;;;;;;;;;;;;7.14;73.56;99317.25;4183256;28;19924;-62
2024/01/05 03:32:36;;;;;;;;;;;;;;;7.18;73.35;99318.16;4183391;28;19932;-61
2024/01/05 03:34:37;;;;;;;;;;;;;;;7.16;73.36;99324.19;4182036;28;19925;-59
2024/01/05 03:36:41;;;;;;;;;;;;;;;7.18;73.46;99313.84;4183095;28;19924;-60
2024/01/05 03:38:44;;;;;;;;;;;;;;;7.20;73.70;99322.50;4182885;28;20019;-60
2024/01/05 03:40:47;;;;;;;;;;;;;;;7.24;73.29;99307.88;4183201;28;19998;-60
2024/01/05 03:42:49;;;;;;;;;;;;;;;7.23;73.47;99301.84;4183031;28;20045;-61
2024/01/05 03:44:51;;;;;;;;;;;;;;;7.25;73.17;99297.53;4183065;28;19925;-61
2024/01/05 03:46:56;;;;;;;;;;;;;;;7.25;73.34;99297.53;4182736;28;20290;-60
2024/01/05 03:48:58;;;;;;;;;;;;;;;7.23;73.16;99301.84;4182984;28;19939;-61
2024/01/05 03:51:02;;;;;;;;;;;;;;;7.27;73.26;99306.19;4182984;28;20305;-61
2024/01/05 03:53:05;;;;;;;;;;;;;;;7.28;73.37;99305.31;4182956;28;19932;-60
2024/01/05 03:55:08;;;;;;;;;;;;;;;7.26;73.74;99296.69;4182829;28;19928;-60
2024/01/05 03:57:11;;;;;;;;;;;;;;;7.28;73.41;99305.31;4181240;28;20374;-59
2024/01/05 03:59:14;;;;;;;;;;;;;;;7.30;73.57;99298.47;4182892;28;20408;-60
2024/01/05 04:01:16;;;;;;;;;;;;;;;7.33;73.70;99293.31;4182789;28;19924;-61
2024/01/05 04:03:20;;;;;;;;;;;;;;;7.40;73.31;99288.19;4181536;28;19932;-60
2024/01/05 04:05:23;;;;;;;;;;;;;;;7.37;73.84;99283.00;4182759;28;19932;-61
2024/01/05 04:07:26;;;;;;;;;;;;;;;7.34;73.33;99287.31;4182346;28;19925;-61
2024/01/05 04:09:29;;;;;;;;;;;;;;;7.37;73.69;99280.41;4181372;28;19956;-60
2024/01/05 04:11:33;;;;;;;;;;;;;;;7.44;73.43;99275.28;4182583;28;19925;-61
2024/01/05 04:13:36;;;;;;;;;;;;;;;7.49;72.76;99283.09;4181272;28;20420;-61
2024/01/05 04:15:39;;;;;;;;;;;;;;;7.45;72.97;99274.44;4182693;28;19924;-61
2024/01/05 04:17:42;;;;;;;;;;;;;;;7.48;73.26;99273.63;4182089;28;19929;-63
2024/01/05 04:19:46;;;;;;;;;;;;;;;7.50;72.95;99269.31;4182543;28;19929;-61
2024/01/05 04:21:49;;;;;;;;;;;;;;;7.59;72.61;99271.94;4182461;28;20382;-62
2024/01/05 04:23:53;;;;;;;;;;;;;;;7.54;72.61;99281.41;4182504;28;19925;-60
2024/01/05 04:25:55;;;;;;;;;;;;;;;7.57;72.22;99278.84;4182411;28;20042;-61
2024/01/05 04:27:58;;;;;;;;;;;;;;;7.53;72.74;99271.91;4182114;28;19939;-61
2024/01/05 04:30:00;;;;;;;;;;;;;;;7.52;72.56;99265.03;4181006;28;19925;-62
2024/01/05 04:32:03;;;;;;;;;;;;;;;7.54;72.10;99263.31;4182372;28;19983;-61
2024/01/05 04:34:05;;;;;;;;;;;;;;;7.49;72.60;99264.97;4181189;28;20022;-62
2024/01/05 04:36:10;;;;;;;;;;;;;;;7.54;72.56;99265.91;4164475;28;19929;-62
2024/01/05 04:38:13;;;;;;;;;;;;;;;7.55;72.64;99265.06;4180753;28;20032;-60
2024/01/05 04:40:17;;;;;;;;;;;;;;;7.55;72.60;99265.06;4182149;28;19932;-61
2024/01/05 04:42:19;;;;;;;;;;;;;;;7.58;72.75;99266.75;4182272;28;19956;-62
2024/01/05 04:44:22;;;;;;;;;;;;;;;7.63;72.19;99260.78;4164496;28;20124;-61
2024/01/05 04:46:25;;;;;;;;;;;;;;;7.63;72.01;99265.94;4180943;28;19964;-58
2024/01/05 04:48:28;;;;;;;;;;;;;;;7.63;72.21;99271.13;4181937;28;19932;-61
2024/01/05 04:50:31;;;;;;;;;;;;;;;7.63;72.28;99265.09;4182244;28;20170;-62
2024/01/05 04:52:35;;;;;;;;;;;;;;;7.62;72.64;99276.28;4181993;28;19929;-62
2024/01/05 04:54:38;;;;;;;;;;;;;;;7.68;72.36;99265.97;4189729;28;19936;-61
2024/01/05 04:56:41;;;;;;;;;;;;;;;7.60;72.11;99257.31;4182596;28;19925;-62
2024/01/05 04:58:44;;;;;;;;;;;;;;;7.63;72.40;99252.16;4189875;28;20023;-61
2024/01/05 05:00:47;;;;;;;;;;;;;;;7.63;72.67;99257.34;4197778;28;20393;-63
2024/01/05 05:02:50;;;;;;;;;;;;;;;7.61;73.05;99256.47;4184049;28;19932;-63
2024/01/05 05:04:52;;;;;;;;;;;;;;;7.66;72.89;99260.78;4191910;28;19940;-62
2024/01/05 05:06:55;;;;;;;;;;;;;;;7.64;72.65;99259.06;4180135;28;20397;-62
2024/01/05 05:08:59;;;;;;;;;;;;;;;7.62;73.48;99265.94;4185136;28;20313;-62
2024/01/05 05:11:03;;;;;;;;;;;;;;;7.61;72.96;99274.56;4183051;28;19932;-62
2024/01/05 05:13:05;;;;;;;;;;;;;;;7.61;73.30;99277.16;4194884;28;20027;-62
2024/01/05 05:15:08;;;;;;;;;;;;;;;7.60;73.40;99262.50;4189826;28;20366;-62
2024/01/05 05:17:10;;;;;;;;;;;;;;;7.64;73.25;99262.50;4181042;28;19928;-62
2024/01/05 05:19:13;;;;;;;;;;;;;;;7.61;73.03;99267.66;4181727;28;19932;-61
2024/01/05 05:21:16;;;;;;;;;;;;;;;7.62;73.39;99263.34;4184683;28;19925;-62
2024/01/05 05:23:18;;;;;;;;;;;;;;;7.65;73.29;99259.09;4186019;28;19931;-61
2024/01/05 05:25:22;;;;;;;;;;;;;;;7.61;73.21;99267.66;4189839;28;19925;-62
2024/01/05 05:27:25;;;;;;;;;;;;;;;7.55;73.59;99261.56;4188498;28;20294;-61
2024/01/05 05:29:28;;;;;;;;;;;;;;;7.63;73.60;99265.09;4187074;28;19990;-60
2024/01/05 05:31:31;;;;;;;;;;;;;;;7.61;74.03;99272.00;4187785;28;19933;-60
2024/01/05 05:33:33;;;;;;;;;;;;;;;7.66;73.55;99267.69;4189714;28;19931;-60
2024/01/05 05:35:36;;;;;;;;;;;;;;;7.63;73.60;99270.25;4195534;28;20509;-60
2024/01/05 05:37:39;;;;;;;;;;;;;;;7.60;74.08;99283.19;4197297;28;19975;-61
2024/01/05 05:39:42;;;;;;;;;;;;;;;7.71;73.55;99267.72;4196182;28;19994;-61
2024/01/05 05:41:46;;;;;;;;;;;;;;;7.65;73.86;99269.44;4197635;28;19932;-60
2024/01/05 05:43:49;;;;;;;;;;;;;;;7.58;74.42;99271.94;4196639;28;19971;-60
2024/01/05 05:45:52;;;;;;;;;;;;;;;7.62;74.36;99268.53;4197711;28;19964;-62
2024/01/05 05:47:54;;;;;;;;;;;;;;;7.58;75.06;99277.13;4197535;28;19924;-62
2024/01/05 05:49:57;;;;;;;;;;;;;;;7.50;75.07;99288.28;4196608;28;20441;-62
2024/01/05 05:52:00;;;;;;;;;;;;;;;7.61;74.71;99280.59;4197705;28;19978;-61
2024/01/05 05:54:03;;;;;;;;;;;;;;;7.65;74.53;99284.06;4197671;28;19924;-62
2024/01/05 05:56:06;;;;;;;;;;;;;;;7.64;74.69;99277.19;4197699;28;19978;-62
2024/01/05 05:58:10;;;;;;;;;;;;;;;7.56;74.99;99274.50;4197212;28;19928;-62
2024/01/05 06:00:13;;;;;;;;;;;;;;;7.54;75.56;99272.78;4197584;28;19925;-62
2024/01/05 06:02:16;;;;;;;;;;;;;;;7.54;75.66;99280.56;4196418;28;19946;-62
2024/01/05 06:04:19;;;;;;;;;;;;;;;7.53;75.57;99268.47;4197591;28;19945;-62
2024/01/05 06:06:23;;;;;;;;;;;;;;;7.57;75.46;99281.44;4197537;28;20019;-60
2024/01/05 06:08:26;;;;;;;;;;;;;;;7.56;75.88;99278.84;4197078;28;19928;-61
2024/01/05 06:10:29;;;;;;;;;;;;;;;7.48;75.76;99274.47;4196476;28;19924;-62
2024/01/05 06:12:30;;;;;;;;;;;;;;;7.55;75.67;99285.75;4197524;28;19932;-62
2024/01/05 06:14:35;;;;;;;;;;;;;;;7.51;75.59;99286.56;4197549;28;19934;-61
2024/01/05 06:16:37;;;;;;;;;;;;;;;7.65;75.46;99284.94;4197507;28;19924;-62
2024/01/05 06:18:39;;;;;;;;;;;;;;;7.67;74.96;99292.72;4197100;28;20298;-62
2024/01/05 06:20:42;;;;;;;;;;;;;;;7.57;75.44;99289.19;4197479;28;20393;-61
2024/01/05 06:22:45;;;;;;;;;;;;;;;7.56;75.46;99289.19;4197492;28;19932;-61
2024/01/05 06:24:48;;;;;;;;;;;;;;;7.64;75.03;99298.72;4196157;28;20427;-61
2024/01/05 06:26:51;;;;;;;;;;;;;;;7.59;75.12;99295.22;4197299;28;19925;-62
2024/01/05 06:28:54;;;;;;;;;;;;;;;7.68;75.23;99295.31;4197318;28;19986;-61
2024/01/05 06:30:57;;;;;;;;;;;;;;;7.60;74.88;99294.38;4197557;28;20015;-61
2024/01/05 06:33:00;;;;;;;;;;;;;;;7.53;75.59;99295.19;4197360;28;20304;-62
2024/01/05 06:35:03;;;;;;;;;;;;;;;7.62;75.86;99300.44;4197371;28;19925;-61
2024/01/05 06:37:06;;;;;;;;;;;;;;;7.63;75.45;99302.16;4197101;28;20309;-61
2024/01/05 06:39:09;;;;;;;;;;;;;;;7.64;75.46;99303.03;4197179;28;19926;-62
2024/01/05 06:41:12;;;;;;;;;;;;;;;7.63;75.69;99290.97;4197238;28;19924;-62
2024/01/05 06:43:15;;;;;;;;;;;;;;;7.65;75.73;99297.88;4197401;28;19956;-61
2024/01/05 06:45:17;;;;;;;;;;;;;;;7.67;75.44;99293.56;4197198;28;20018;-61
2024/01/05 06:47:21;;;;;;;;;;;;;;;7.69;75.13;99298.75;4196962;28;20015;-61
2024/01/05 06:49:25;;;;;;;;;;;;;;;7.63;75.43;99302.16;4197337;28;19978;-61
2024/01/05 06:51:29;;;;;;;;;;;;;;;7.71;75.30;99293.59;4197996;28;19924;-62
2024/01/05 06:53:33;;;;;;;;;;;;;;;7.68;74.80;99297.91;4200360;28;19931;-62
2024/01/05 06:55:36;;;;;;;;;;;;;;;7.61;75.47;99293.53;4200386;28;19925;-61
2024/01/05 06:57:38;;;;;;;;;;;;;;;7.65;75.58;99290.13;4200039;28;19931;-62
2024/01/05 06:59:41;;;;;;;;;;;;;;;7.66;75.24;99293.56;4200209;28;19950;-62
2024/01/05 07:01:44;;;;;;;;;;;;;;;7.71;75.17;99303.94;4200288;28;19968;-61
2024/01/05 07:03:48;;;;;;;;;;;;;;;7.63;75.42;99296.13;4200265;28;19928;-62
2024/01/05 07:05:50;;;;;;;;;;;;;;;7.63;75.00;99302.16;4200204;28;20023;-62
2024/01/05 07:07:53;;;;;;;;;;;;;;;7.64;75.08;99303.91;4199850;28;19925;-61
2024/01/05 07:09:56;;;;;;;;;;;;;;;7.74;75.03;99297.09;4200045;28;19930;-58
2024/01/05 07:11:59;;;;;;;;;;;;;;;7.75;74.41;99297.94;4200381;28;19978;-62
2024/01/05 07:14:02;;;;;;;;;;;;;;;7.67;74.41;99305.66;4200038;28;19947;-62
2024/01/05 07:16:05;;;;;;;;;;;;;;;7.64;75.15;99308.22;4200113;28;19924;-62
2024/01/05 07:18:07;;;;;;;;;;;;;;;7.63;74.88;99316.81;4199717;28;19925;-62
2024/01/05 07:20:13;;;;;;;;;;;;;;;7.61;75.24;99319.41;4200022;28;20019;-61
2024/01/05 07:22:15;;;;;;;;;;;;;;;7.60;75.32;99324.56;4199918;28;20448;-62
2024/01/05 07:24:18;;;;;;;;;;;;;;;7.64;75.08;99331.50;4199913;28;19939;-62
2024/01/05 07:26:21;;;;;;;;;;;;;;;7.60;75.38;99325.41;4199794;28;19925;-61
2024/01/05 07:28:24;;;;;;;;;;;;;;;7.64;74.96;99321.16;4198321;28;19978;-62
2024/01/05 07:30:27;;;;;;;;;;;;;;;7.67;75.03;99322.03;4199814;28;19925;-62
2024/01/05 07:32:29;;;;;;;;;;;;;;;7.60;75.15;99315.06;4199761;28;19930;-62
2024/01/05 07:34:32;;;;;;;;;;;;;;;7.64;74.92;99309.06;4199675;28;19934;-61
2024/01/05 07:36:36;;;;;;;;;;;;;;;7.64;75.18;99311.66;4199603;28;19928;-62
2024/01/05 07:38:39;;;;;;;;;;;;;;;7.62;75.11;99300.44;4198949;28;19924;-61
2024/01/05 07:40:42;;;;;;;;;;;;;;;7.65;74.91;99303.06;4198725;28;20321;-62
2024/01/05 07:42:44;;;;;;;;;;;;;;;7.70;74.84;99308.25;4199216;28;19928;-61
2024/01/05 07:44:47;;;;;;;;;;;;;;;7.85;74.91;99302.31;4199333;28;20314;-61
2024/01/05 07:46:50;;;;;;;;;;;;;;;7.86;74.40;99304.06;4199402;28;19967;-62
2024/01/05 07:48:53;;;;;;;;;;;;;;;7.96;74.48;99312.75;4199506;28;19929;-61
2024/01/05 07:50:56;;;;;;;;;;;;;;;7.98;74.72;99308.44;4199746;28;19925;-61
2024/01/05 07:53:00;;;;;;;;;;;;;;;7.97;74.17;99315.34;4199600;28;19924;-58
2024/01/05 07:55:03;;;;;;;;;;;;;;;7.90;73.86;99308.41;4199479;28;19970;-61
2024/01/05 07:57:06;;;;;;;;;;;;;;;7.88;73.74;99302.31;4199216;28;19960;-62
2024/01/05 07:59:09;;;;;;;;;;;;;;;7.85;74.29;99298.00;4200171;28;19924;-61
2024/01/05 08:01:14;;;;;;;;;;;;;;;7.81;74.26;99290.22;4200133;28;19928;-60
2024/01/05 08:03:18;;;;;;;;;;;;;;;7.83;74.51;99296.28;4199548;28;19924;-60
2024/01/05 08:05:24;;;;;;;;;;;;;;;7.84;74.86;99295.41;4199762;28;19959;-61
2024/01/05 08:07:27;;;;;;;;;;;;;;;7.80;74.92;99291.94;4198318;28;20405;-62
2024/01/05 08:09:31;;;;;;;;;;;;;;;7.83;74.85;99291.97;4198068;28;20493;-61
2024/01/05 08:11:34;;;;;;;;;;;;;;;7.82;75.20;99287.63;4199257;28;19924;-62
2024/01/05 08:13:36;;;;;;;;;;;;;;;7.87;74.86;99282.50;4199217;28;19925;-62
2024/01/05 08:15:39;;;;;;;;;;;;;;;7.95;74.44;99283.41;4197737;28;19925;-61
2024/01/05 08:17:42;;;;;;;;;;;;;;;7.92;74.37;99287.72;4198768;28;19932;-61
2024/01/05 08:19:45;;;;;;;;;;;;;;;8.01;74.23;99290.34;4199059;28;20279;-62
2024/01/05 08:21:48;;;;;;;;;;;;;;;8.04;73.81;99277.41;4199107;28;19925;-61
2024/01/05 08:23:51;;;;;;;;;;;;;;;8.04;74.45;99283.47;4198978;28;20027;-62
2024/01/05 08:25:55;;;;;;;;;;;;;;;8.02;74.23;99285.16;4197886;28;20398;-62
2024/01/05 08:28:02;;;;;;;;;;;;;;;8.04;74.28;99287.75;4198778;28;20382;-62
2024/01/05 08:30:07;;;;;;;;;;;;;;;8.04;74.15;99286.06;4198965;28;20459;-62
2024/01/05 08:32:10;;;;;;;;;;;;;;;8.07;74.12;99271.38;4199002;28;19925;-62
2024/01/05 08:34:13;;;;;;;;;;;;;;;8.07;73.83;99276.56;4199041;28;19978;-62
2024/01/05 08:36:16;;;;;;;;;;;;;;;8.08;74.15;99284.34;4198949;28;20382;-62
2024/01/05 08:38:19;;;;;;;;;;;;;;;8.15;74.11;99277.47;4198576;28;19930;-62
2024/01/05 08:40:25;;;;;;;;;;;;;;;8.17;73.60;99280.94;4197508;28;19939;-61
2024/01/05 08:42:30;;;;;;;;;;;;;;;8.21;73.49;99274.91;4198870;28;19931;-62
2024/01/05 08:44:32;;;;;;;;;;;;;;;8.28;73.38;99275.78;4197505;28;19924;-62
2024/01/05 08:46:34;;;;;;;;;;;;;;;8.35;73.20;99269.78;4198767;28;20325;-62
2024/01/05 08:48:39;;;;;;;;;;;;;;;8.32;72.91;99270.66;4198799;28;20014;-62
2024/01/05 08:50:42;;;;;;;;;;;;;;;8.31;73.24;99265.44;4197284;28;19924;-62
2024/01/05 08:52:45;;;;;;;;;;;;;;;8.35;73.38;99265.47;4198514;28;20439;-61
2024/01/05 08:54:47;;;;;;;;;;;;;;;8.42;73.04;99260.31;4198598;28;19982;-62
2024/01/05 08:56:52;;;;;;;;;;;;;;;8.45;72.44;99262.94;4198238;28;20393;-63
2024/01/05 08:58:56;;;;;;;;;;;;;;;8.46;72.58;99255.19;4198424;28;19924;-62
2024/01/05 09:00:59;;;;;;;;;;;;;;;8.44;72.41;99268.94;4198398;28;20386;-62
2024/01/05 09:03:03;;;;;;;;;;;;;;;8.43;72.37;99265.50;4198452;28;20157;-61
2024/01/05 09:05:07;;;;;;;;;;;;;;;8.44;72.52;99272.47;4197114;28;19929;-62
2024/01/05 09:07:10;;;;;;;;;;;;;;;8.43;72.78;99277.59;4197855;28;19924;-62
2024/01/05 09:09:12;;;;;;;;;;;;;;;8.47;72.51;99284.53;4198280;28;19928;-62
2024/01/05 09:11:16;;;;;;;;;;;;;;;8.42;72.51;99279.31;4197107;28;19925;-62
2024/01/05 09:13:18;;;;;;;;;;;;;;;8.46;72.38;99280.22;4198225;28;20386;-62
2024/01/05 09:15:22;;;;;;;;;;;;;;;8.42;72.00;99275.84;4197553;28;19932;-62
2024/01/05 09:17:26;;;;;;;;;;;;;;;8.38;72.13;99283.63;4197836;28;19924;-62
2024/01/05 09:19:28;;;;;;;;;;;;;;;8.36;72.19;99290.50;4198227;28;19936;-61
2024/01/05 09:21:31;;;;;;;;;;;;;;;8.39;72.38;99289.66;4198360;28;19932;-62
2024/01/05 09:23:34;;;;;;;;;;;;;;;8.44;72.19;99292.25;4198611;28;19925;-61
2024/01/05 09:25:37;;;;;;;;;;;;;;;8.49;72.11;99291.44;4198206;28;20318;-60
2024/01/05 09:27:43;;;;;;;;;;;;;;;8.52;72.04;99301.81;4198582;28;19928;-61
2024/01/05 09:29:45;;;;;;;;;;;;;;;8.55;71.80;99306.16;4200843;28;19947;-63
2024/01/05 09:31:50;;;;;;;;;;;;;;;8.58;71.89;99311.34;4199178;28;19978;-59
2024/01/05 09:33:54;;;;;;;;;;;;;;;8.71;71.60;99312.25;4198618;28;19994;-61
2024/01/05 09:35:57;;;;;;;;;;;;;;;8.71;71.46;99320.03;4197908;28;20023;-61
2024/01/05 09:37:59;;;;;;;;;;;;;;;8.72;71.46;99322.63;4197654;28;20393;-62
2024/01/05 09:40:01;;;;;;;;;;;;;;;8.78;71.54;99319.19;4197827;28;19939;-61
2024/01/05 09:42:04;;;;;;;;;;;;;;;8.79;71.80;99310.56;4197875;28;19978;-62
2024/01/05 09:44:07;;;;;;;;;;;;;;;8.87;71.38;99306.25;4197867;28;19924;-59
2024/01/05 09:46:10;;;;;;;;;;;;;;;8.98;71.23;99315.78;4198050;28;20419;-62
2024/01/05 09:48:15;;;;;;;;;;;;;;;8.95;71.00;99314.06;4198708;28;19935;-62
2024/01/05 09:50:18;;;;;;;;;;;;;;;8.91;71.05;99310.59;4196966;28;19970;-62
2024/01/05 09:52:21;;;;;;;;;;;;;;;8.89;70.92;99314.03;4197643;28;19924;-58
2024/01/05 09:54:24;;;;;;;;;;;;;;;8.85;70.93;99314.91;4196534;28;19982;-61
2024/01/05 09:56:26;;;;;;;;;;;;;;;8.85;71.64;99315.75;4197624;28;19931;-60
2024/01/05 09:58:30;;;;;;;;;;;;;;;8.83;71.18;99320.06;4197273;28;19931;-59
2024/01/05 10:00:33;;;;;;;;;;;;;;;8.92;70.90;99311.44;4197650;28;19963;-60
2024/01/05 10:02:39;;;;;;;;;;;;;;;8.96;70.75;99312.31;4197635;28;19931;-59
2024/01/05 10:04:44;;;;;;;;;;;;;;;8.96;71.05;99313.19;4197702;28;19963;-61
2024/01/05 10:06:46;;;;;;;;;;;;;;;9.04;71.08;99308.88;4196142;28;19928;-62
2024/01/05 10:08:50;;;;;;;;;;;;;;;9.07;70.85;99324.44;4197387;28;20282;-62
2024/01/05 10:10:56;;;;;;;;;;;;;;;9.13;70.79;99314.97;4197520;28;20012;-59
2024/01/05 10:13:04;;;;;;;;;;;;;;;9.06;70.34;99320.13;4197404;28;20019;-62
2024/01/05 10:15:08;;;;;;;;;;;;;;;9.08;71.21;99325.28;4197680;28;20340;-61
2024/01/05 10:17:11;;;;;;;;;;;;;;;9.16;71.19;99327.94;4196852;28;19931;-61
2024/01/05 10:19:15;;;;;;;;;;;;;;;9.30;70.75;99331.41;4197542;28;19928;-62
2024/01/05 10:21:23;;;;;;;;;;;;;;;9.34;71.09;99327.06;4198343;28;19935;-62
2024/01/05 10:23:26;;;;;;;;;;;;;;;9.44;70.39;99313.25;4197690;28;19924;-62
2024/01/05 10:25:36;;;;;;;;;;;;;;;9.41;70.00;99326.22;4197112;28;19925;-62
2024/01/05 10:27:39;;;;;;;;;;;;;;;9.54;69.95;99321.91;4200811;28;19970;-62
2024/01/05 10:29:42;;;;;;;;;;;;;;;9.50;69.90;99330.53;4200817;28;19974;-62
2024/01/05 10:31:45;;;;;;;;;;;;;;;9.82;69.73;99327.06;4200937;28;20302;-61
2024/01/05 10:33:49;;;;;;;;;;;;;;;9.66;69.30;99327.06;4199668;28;19959;-62
2024/01/05 10:35:52;;;;;;;;;;;;;;;9.59;70.00;99335.72;4202056;28;20338;-63
2024/01/05 10:38:03;;;;;;;;;;;;;;;9.74;69.36;99329.69;4200483;28;20378;-62
2024/01/05 10:40:07;;;;;;;;;;;;;;;9.74;70.09;99329.69;4200972;28;20366;-61
2024/01/05 10:42:17;;;;;;;;;;;;;;;9.71;70.11;99338.34;4201935;28;19924;-62
2024/01/05 10:44:20;;;;;;;;;;;;;;;9.73;70.89;99327.94;4201822;28;20341;-62
2024/01/05 10:46:23;;;;;;;;;;;;;;;9.77;70.90;99327.94;4200547;28;19924;-62
2024/01/05 10:48:28;;;;;;;;;;;;;;;9.73;71.03;99321.00;4200494;28;19924;-63
2024/01/05 10:50:33;;;;;;;;;;;;;;;9.81;70.74;99321.00;4200616;28;19929;-63